createdAt,value
2018-06-15T00:00:12.030Z,8.70
2018-06-15T00:02:40.422Z,8.67
2018-06-15T00:05:08.838Z,6.63
2018-06-15T00:07:37.209Z,8.00
2018-06-15T00:10:05.627Z,7.93
2018-06-15T00:12:33.998Z,9.37
2018-06-15T00:15:02.394Z,9.70
2018-06-15T00:17:30.798Z,10.30
2018-06-15T00:19:59.238Z,10.03
2018-06-15T00:22:27.614Z,11.07
2018-06-15T00:24:55.990Z,10.90
2018-06-15T00:27:24.387Z,9.97
2018-06-15T00:29:52.767Z,11.50
2018-06-15T00:32:21.153Z,10.60
2018-06-15T00:34:49.517Z,10.23
2018-06-15T00:37:17.920Z,11.57
2018-06-15T00:39:46.293Z,9.80
2018-06-15T00:42:14.687Z,9.90
2018-06-15T00:44:43.378Z,9.70
2018-06-15T00:47:11.769Z,11.40
2018-06-15T00:49:40.143Z,12.27
2018-06-15T00:52:08.552Z,11.17
2018-06-15T00:54:36.946Z,11.67
2018-06-15T00:57:16.693Z,10.80
2018-06-15T00:59:45.067Z,12.53
2018-06-15T01:02:13.446Z,13.90
2018-06-15T01:04:41.870Z,12.33
2018-06-15T01:07:10.263Z,11.87
2018-06-15T01:09:38.812Z,12.80
2018-06-15T01:12:07.189Z,12.30
2018-06-15T01:14:35.681Z,12.77
2018-06-15T01:17:04.066Z,13.40
2018-06-15T01:19:32.646Z,13.63
2018-06-15T01:22:01.027Z,13.13
2018-06-15T01:24:29.438Z,14.30
2018-06-15T01:26:58.066Z,14.90
2018-06-15T01:29:26.506Z,14.03
2018-06-15T01:31:55.031Z,14.00
2018-06-15T01:34:23.429Z,14.80
2018-06-15T01:36:51.843Z,14.93
2018-06-15T01:39:20.267Z,14.13
2018-06-15T01:41:48.652Z,16.57
2018-06-15T01:44:17.063Z,17.03
2018-06-15T01:46:45.446Z,16.40
2018-06-15T01:49:13.841Z,14.70
2018-06-15T01:51:42.226Z,15.67
2018-06-15T01:54:10.634Z,19.27
2018-06-15T01:56:39.015Z,18.17
2018-06-15T01:59:07.430Z,19.90
2018-06-15T02:01:35.808Z,19.57
2018-06-15T02:04:04.206Z,17.30
2018-06-15T02:06:32.611Z,16.17
2018-06-15T02:09:01.030Z,17.43
2018-06-15T02:11:30.221Z,17.33
2018-06-15T02:13:58.604Z,17.67
2018-06-15T02:16:27.010Z,17.77
2018-06-15T02:18:55.391Z,17.90
2018-06-15T02:21:23.818Z,18.27
2018-06-15T02:23:52.226Z,20.10
2018-06-15T02:26:20.651Z,17.97
2018-06-15T02:28:49.030Z,17.93
2018-06-15T02:31:17.426Z,17.20
2018-06-15T02:33:45.811Z,18.93
2018-06-15T02:36:14.219Z,16.90
2018-06-15T02:38:42.609Z,18.40
2018-06-15T02:41:11.015Z,18.13
2018-06-15T02:43:39.385Z,17.30
2018-06-15T02:46:07.783Z,15.53
2018-06-15T02:48:36.172Z,17.40
2018-06-15T02:51:04.582Z,16.20
2018-06-15T02:53:32.962Z,18.63
2018-06-15T02:56:01.381Z,17.83
2018-06-15T02:58:29.763Z,18.33
2018-06-15T03:00:58.159Z,17.90
2018-06-15T03:03:26.535Z,19.57
2018-06-15T03:05:54.967Z,18.30
2018-06-15T03:08:23.347Z,18.77
2018-06-15T03:10:51.746Z,19.13
2018-06-15T03:13:20.127Z,20.63
2018-06-15T03:15:48.526Z,20.40
2018-06-15T03:18:17.487Z,18.67
2018-06-15T03:20:45.891Z,18.93
2018-06-15T03:23:14.267Z,20.37
2018-06-15T03:25:42.679Z,20.40
2018-06-15T03:28:11.055Z,21.10
2018-06-15T03:30:39.431Z,20.60
2018-06-15T03:33:07.836Z,19.80
2018-06-15T03:35:36.270Z,19.50
2018-06-15T03:38:04.674Z,21.00
2018-06-15T03:40:33.055Z,19.83
2018-06-15T03:43:01.455Z,19.50
2018-06-15T03:45:29.835Z,22.53
2018-06-15T03:47:58.242Z,20.37
2018-06-15T03:50:26.708Z,20.43
2018-06-15T03:52:55.126Z,20.80
2018-06-15T03:55:23.498Z,20.77
2018-06-15T03:57:51.898Z,20.47
2018-06-15T04:00:20.274Z,21.20
2018-06-15T04:02:48.770Z,22.43
2018-06-15T04:05:17.170Z,21.77
2018-06-15T04:07:45.627Z,22.40
2018-06-15T04:10:13.991Z,22.97
2018-06-15T04:12:42.390Z,20.67
2018-06-15T04:15:10.778Z,21.73
2018-06-15T04:17:39.180Z,23.27
2018-06-15T04:20:07.561Z,23.50
2018-06-15T04:22:35.963Z,23.40
2018-06-15T04:25:04.344Z,22.43
2018-06-15T04:27:32.746Z,22.00
2018-06-15T04:30:01.122Z,19.77
2018-06-15T04:32:29.626Z,22.47
2018-06-15T04:34:58.010Z,23.17
2018-06-15T04:37:26.465Z,22.77
2018-06-15T04:39:54.821Z,22.77
2018-06-15T04:42:23.227Z,21.70
2018-06-15T04:44:51.607Z,23.27
2018-06-15T04:47:20.019Z,23.37
2018-06-15T04:49:48.427Z,21.77
2018-06-15T04:52:16.800Z,20.90
2018-06-15T04:54:45.198Z,23.80
2018-06-15T04:57:13.575Z,23.40
2018-06-15T04:59:42.027Z,23.57
2018-06-15T05:02:10.410Z,23.20
2018-06-15T05:04:38.834Z,25.90
2018-06-15T05:07:07.220Z,23.47
2018-06-15T05:09:35.619Z,24.03
2018-06-15T05:12:03.999Z,25.80
2018-06-15T05:14:32.403Z,25.77
2018-06-15T05:17:00.824Z,24.40
2018-06-15T05:19:29.227Z,25.43
2018-06-15T05:21:57.618Z,25.60
2018-06-15T05:24:26.024Z,23.70
2018-06-15T05:26:54.411Z,23.80
2018-06-15T05:29:23.162Z,23.13
2018-06-15T05:31:51.551Z,27.07
2018-06-15T05:34:19.946Z,26.47
2018-06-15T05:36:48.328Z,24.10
2018-06-15T05:39:16.756Z,23.97
2018-06-15T05:41:45.139Z,23.57
2018-06-15T05:44:13.589Z,26.00
2018-06-15T05:46:42.002Z,24.47
2018-06-15T05:49:10.386Z,23.33
2018-06-15T05:51:38.871Z,23.03
2018-06-15T05:54:07.250Z,22.40
2018-06-15T05:56:35.663Z,26.10
2018-06-15T05:59:04.063Z,26.90
2018-06-15T06:01:32.504Z,25.70
2018-06-15T06:04:00.996Z,24.87
2018-06-15T06:06:29.378Z,24.00
2018-06-15T06:08:57.759Z,27.07
2018-06-15T06:11:26.164Z,25.30
2018-06-15T06:13:54.539Z,23.60
2018-06-15T06:16:22.938Z,25.40
2018-06-15T06:18:51.314Z,26.30
2018-06-15T06:21:19.719Z,24.50
2018-06-15T06:23:48.099Z,25.10
2018-06-15T06:26:16.507Z,27.80
2018-06-15T06:28:44.886Z,24.27
2018-06-15T06:31:13.305Z,24.80
2018-06-15T06:33:41.689Z,26.63
2018-06-15T06:36:10.066Z,26.50
2018-06-15T06:38:38.462Z,25.20
2018-06-15T06:41:06.983Z,25.77
2018-06-15T06:43:35.406Z,24.60
2018-06-15T06:46:03.798Z,25.87
2018-06-15T06:48:32.190Z,24.83
2018-06-15T06:51:00.567Z,24.23
2018-06-15T06:53:28.990Z,24.63
2018-06-15T06:55:57.362Z,25.43
2018-06-15T06:58:25.782Z,23.10
2018-06-15T07:00:54.165Z,25.60
2018-06-15T07:03:22.567Z,24.40
2018-06-15T07:05:50.966Z,25.23
2018-06-15T07:08:19.367Z,24.33
2018-06-15T07:10:47.747Z,26.17
2018-06-15T07:13:16.188Z,25.80
2018-06-15T07:15:44.570Z,24.33
2018-06-15T07:18:13.143Z,26.20
2018-06-15T07:20:41.610Z,27.13
2018-06-15T07:23:10.091Z,26.20
2018-06-15T07:25:38.480Z,25.77
2018-06-15T07:28:06.874Z,26.13
2018-06-15T07:30:35.250Z,25.37
2018-06-15T07:33:03.711Z,25.80
2018-06-15T07:35:32.111Z,23.33
2018-06-15T07:38:00.486Z,22.00
2018-06-15T07:40:28.890Z,21.37
2018-06-15T07:42:57.331Z,24.50
2018-06-15T07:45:25.723Z,23.40
2018-06-15T07:47:54.095Z,22.70
2018-06-15T07:50:22.498Z,20.87
2018-06-15T07:52:50.888Z,21.57
2018-06-15T07:55:19.363Z,22.80
2018-06-15T07:57:47.771Z,22.50
2018-06-15T08:00:16.171Z,22.00
2018-06-15T08:02:44.546Z,19.03
2018-06-15T08:05:12.967Z,16.90
2018-06-15T08:07:41.351Z,16.83
2018-06-15T08:10:09.753Z,17.33
2018-06-15T08:12:38.188Z,15.83
2018-06-15T08:15:06.582Z,16.40
2018-06-15T08:17:34.958Z,16.93
2018-06-15T08:20:03.362Z,13.30
2018-06-15T08:22:31.738Z,14.77
2018-06-15T08:25:00.141Z,15.93
2018-06-15T08:27:28.532Z,13.00
2018-06-15T08:29:56.934Z,13.20
2018-06-15T08:32:25.310Z,11.50
2018-06-15T08:34:53.715Z,13.30
2018-06-15T08:37:22.090Z,11.30
2018-06-15T08:39:50.526Z,15.30
2018-06-15T08:42:18.914Z,14.73
2018-06-15T08:44:47.347Z,14.30
2018-06-15T08:47:15.721Z,13.57
2018-06-15T08:49:44.185Z,14.30
2018-06-15T08:52:12.588Z,13.63
2018-06-15T08:54:40.971Z,14.80
2018-06-15T08:57:09.370Z,14.27
2018-06-15T08:59:37.789Z,12.80
2018-06-15T09:02:06.195Z,8.87
2018-06-15T09:04:34.574Z,11.20
2018-06-15T09:07:02.999Z,9.60
2018-06-15T09:09:31.370Z,8.03
2018-06-15T09:11:59.774Z,15.83
2018-06-15T09:14:28.147Z,7.90
2018-06-15T09:16:56.538Z,7.67
2018-06-15T09:19:25.163Z,7.27
2018-06-15T09:21:53.567Z,7.33
2018-06-15T09:24:21.943Z,6.70
2018-06-15T09:26:50.339Z,6.67
2018-06-15T09:29:18.710Z,7.80
2018-06-15T09:31:47.109Z,7.60
2018-06-15T09:34:15.482Z,7.27
2018-06-15T09:36:43.883Z,7.57
2018-06-15T09:39:12.898Z,7.80
2018-06-15T09:41:41.826Z,8.73
2018-06-15T09:44:10.219Z,8.73
2018-06-15T09:46:38.666Z,8.20
2018-06-15T09:49:08.006Z,9.03
2018-06-15T09:51:36.398Z,8.50
2018-06-15T09:54:04.775Z,9.53
2018-06-15T09:56:33.178Z,7.70
2018-06-15T09:59:01.554Z,7.53
2018-06-15T10:01:29.947Z,8.43
2018-06-15T10:03:58.318Z,7.90
2018-06-15T10:06:26.715Z,7.43
2018-06-15T10:08:55.110Z,7.07
2018-06-15T10:11:23.491Z,7.23
2018-06-15T10:13:51.887Z,6.67
2018-06-15T10:16:20.258Z,6.00
2018-06-15T10:18:48.659Z,5.73
2018-06-15T10:21:17.030Z,5.53
2018-06-15T10:23:45.423Z,5.57
2018-06-15T10:26:13.799Z,5.47
2018-06-15T10:28:42.195Z,5.10
2018-06-15T10:31:10.575Z,6.10
2018-06-15T10:33:38.976Z,5.77
2018-06-15T10:36:07.360Z,5.23
2018-06-15T10:38:35.762Z,4.67
2018-06-15T10:41:04.151Z,4.70
2018-06-15T10:43:32.551Z,6.70
2018-06-15T10:46:00.930Z,4.23
2018-06-15T10:48:29.342Z,5.73
2018-06-15T10:50:57.727Z,5.37
2018-06-15T10:53:26.126Z,5.10
2018-06-15T10:55:54.507Z,5.33
2018-06-15T10:58:22.893Z,5.33
2018-06-15T11:00:51.259Z,5.37
2018-06-15T11:03:19.654Z,5.87
2018-06-15T11:05:48.055Z,5.30
2018-06-15T11:08:16.458Z,5.87
2018-06-15T11:10:44.863Z,6.30
2018-06-15T11:13:13.262Z,6.30
2018-06-15T11:15:41.638Z,5.23
2018-06-15T11:18:10.150Z,5.33
2018-06-15T11:20:38.599Z,5.57
2018-06-15T11:23:07.015Z,4.77
2018-06-15T11:25:35.411Z,5.87
2018-06-15T11:28:03.788Z,4.67
2018-06-15T11:30:32.216Z,5.50
2018-06-15T11:33:00.597Z,5.90
2018-06-15T11:35:28.996Z,5.33
2018-06-15T11:37:57.378Z,4.00
2018-06-15T11:40:25.783Z,5.20
2018-06-15T11:42:54.159Z,4.90
2018-06-15T11:45:22.572Z,4.80
2018-06-15T11:47:50.968Z,5.87
2018-06-15T11:50:19.364Z,5.23
2018-06-15T11:52:47.739Z,5.30
2018-06-15T11:55:16.151Z,5.00
2018-06-15T11:57:44.534Z,4.80
2018-06-15T12:00:12.968Z,5.47
2018-06-15T12:02:41.342Z,5.20
2018-06-15T12:05:09.763Z,4.53
2018-06-15T12:07:38.142Z,4.60
2018-06-15T12:10:06.547Z,5.87
2018-06-15T12:12:34.931Z,4.70
2018-06-15T12:15:03.343Z,4.87
2018-06-15T12:17:31.714Z,4.70
2018-06-15T12:20:00.115Z,4.70
2018-06-15T12:22:28.491Z,4.40
2018-06-15T12:24:57.115Z,4.27
2018-06-15T12:27:25.554Z,3.90
2018-06-15T12:29:54.075Z,3.20
2018-06-15T12:32:22.458Z,4.07
2018-06-15T12:34:50.856Z,3.63
2018-06-15T12:37:19.235Z,3.37
2018-06-15T12:39:47.646Z,4.13
2018-06-15T12:42:16.022Z,3.10
2018-06-15T12:44:44.430Z,4.03
2018-06-15T12:47:12.834Z,3.80
2018-06-15T12:49:41.210Z,3.80
2018-06-15T12:52:09.598Z,3.73
2018-06-15T12:54:38.254Z,4.80
2018-06-15T12:57:07.070Z,3.67
2018-06-15T12:59:37.131Z,4.00
2018-06-15T13:02:05.582Z,3.70
2018-06-15T13:04:33.985Z,4.17
2018-06-15T13:07:02.423Z,3.17
2018-06-15T13:09:30.797Z,3.70
2018-06-15T13:11:59.191Z,3.80
2018-06-15T13:14:27.586Z,3.93
2018-06-15T13:16:55.992Z,3.70
2018-06-15T13:19:24.377Z,4.00
2018-06-15T13:21:52.775Z,4.13
2018-06-15T13:24:21.143Z,3.30
2018-06-15T13:26:49.539Z,3.10
2018-06-15T13:29:17.918Z,3.10
2018-06-15T13:31:46.307Z,3.10
2018-06-15T13:34:14.730Z,3.00
2018-06-15T13:36:43.127Z,3.43
2018-06-15T13:39:13.074Z,2.80
2018-06-15T13:41:41.483Z,3.07
2018-06-15T13:44:09.854Z,3.17
2018-06-15T13:46:38.246Z,3.90
2018-06-15T13:49:06.694Z,3.40
2018-06-15T13:51:35.095Z,3.60
2018-06-15T13:54:03.656Z,3.33
2018-06-15T13:56:32.047Z,2.70
2018-06-15T13:59:00.418Z,3.57
2018-06-15T14:01:28.819Z,3.73
2018-06-15T14:03:57.464Z,4.70
2018-06-15T14:06:25.878Z,2.80
2018-06-15T14:08:54.255Z,3.00
2018-06-15T14:11:22.703Z,2.93
2018-06-15T14:13:51.095Z,3.07
2018-06-15T14:16:19.467Z,2.80
2018-06-15T14:18:47.867Z,2.93
2018-06-15T14:21:16.247Z,3.33
2018-06-15T14:23:44.642Z,2.97
2018-06-15T14:26:13.302Z,3.20
2018-06-15T14:28:42.367Z,3.10
2018-06-15T14:31:10.742Z,2.97
2018-06-15T14:33:39.139Z,3.20
2018-06-15T14:36:08.057Z,2.87
2018-06-15T14:38:36.458Z,2.63
2018-06-15T14:41:04.849Z,3.07
2018-06-15T14:43:33.243Z,3.37
2018-06-15T14:46:01.655Z,3.57
2018-06-15T14:48:30.066Z,3.37
2018-06-15T14:50:58.438Z,3.43
2018-06-15T14:53:27.032Z,3.27
2018-06-15T14:55:55.409Z,3.00
2018-06-15T14:58:23.864Z,2.73
2018-06-15T15:00:52.210Z,3.17
2018-06-15T15:03:20.602Z,2.73
2018-06-15T15:05:49.001Z,3.73
2018-06-15T15:08:17.438Z,3.20
2018-06-15T15:10:45.810Z,3.20
2018-06-15T15:13:14.242Z,3.80
2018-06-15T15:15:42.646Z,3.30
2018-06-15T15:18:11.049Z,3.80
2018-06-15T15:20:39.427Z,3.33
2018-06-15T15:23:07.839Z,3.60
2018-06-15T15:25:36.218Z,2.93
2018-06-15T15:28:04.676Z,3.80
2018-06-15T15:30:33.058Z,5.67
2018-06-15T15:33:01.440Z,3.33
2018-06-15T15:35:29.838Z,3.03
2018-06-15T15:37:58.250Z,3.50
2018-06-15T15:40:26.650Z,3.70
2018-06-15T15:42:55.019Z,4.00
2018-06-15T15:45:23.423Z,3.47
2018-06-15T15:47:51.795Z,4.20
2018-06-15T15:50:20.196Z,3.47
2018-06-15T15:52:48.578Z,3.37
2018-06-15T15:55:16.974Z,3.73
2018-06-15T15:57:45.397Z,3.07
2018-06-15T16:00:13.775Z,4.73
2018-06-15T16:02:42.160Z,3.83
2018-06-15T16:05:10.605Z,3.80
2018-06-15T16:07:38.983Z,3.27
2018-06-15T16:10:07.454Z,3.67
2018-06-15T16:12:35.834Z,3.40
2018-06-15T16:15:04.231Z,3.90
2018-06-15T16:17:32.612Z,4.47
2018-06-15T16:20:01.022Z,4.60
2018-06-15T16:22:29.396Z,3.30
2018-06-15T16:24:57.799Z,3.40
2018-06-15T16:27:26.195Z,4.20
2018-06-15T16:29:54.608Z,3.50
2018-06-15T16:32:23.018Z,3.73
2018-06-15T16:34:51.424Z,3.37
2018-06-15T16:37:19.817Z,3.73
2018-06-15T16:39:48.235Z,3.73
2018-06-15T16:42:16.714Z,3.87
2018-06-15T16:44:45.114Z,3.97
2018-06-15T16:47:13.490Z,3.47
2018-06-15T16:49:41.906Z,3.47
2018-06-15T16:52:10.647Z,4.00
2018-06-15T16:54:39.027Z,4.00
2018-06-15T16:57:07.566Z,4.80
2018-06-15T16:59:35.959Z,5.23
2018-06-15T17:02:04.393Z,4.90
2018-06-15T17:04:32.771Z,4.93
2018-06-15T17:07:01.194Z,6.17
2018-06-15T17:09:29.571Z,6.37
2018-06-15T17:11:57.974Z,6.10
2018-06-15T17:14:26.359Z,6.00
2018-06-15T17:16:54.759Z,5.87
2018-06-15T17:19:23.150Z,5.23
2018-06-15T17:21:51.690Z,6.90
2018-06-15T17:24:20.645Z,6.30
2018-06-15T17:26:49.087Z,5.10
2018-06-15T17:29:17.477Z,6.20
2018-06-15T17:31:45.878Z,5.17
2018-06-15T17:34:14.255Z,6.27
2018-06-15T17:36:45.103Z,6.23
2018-06-15T17:39:14.354Z,6.80
2018-06-15T17:41:43.886Z,5.87
2018-06-15T17:44:12.270Z,8.10
2018-06-15T17:46:40.679Z,5.10
2018-06-15T17:49:09.425Z,5.70
2018-06-15T17:51:37.914Z,5.90
2018-06-15T17:54:06.609Z,5.10
2018-06-15T17:56:35.114Z,5.00
2018-06-15T17:59:03.534Z,5.03
2018-06-15T18:01:32.146Z,5.47
2018-06-15T18:04:00.520Z,5.10
2018-06-15T18:06:29.107Z,4.90
2018-06-15T18:08:57.551Z,4.97
2018-06-15T18:11:26.025Z,5.40
2018-06-15T18:13:54.514Z,5.80
2018-06-15T18:16:22.907Z,5.93
2018-06-15T18:18:51.298Z,6.17
2018-06-15T18:21:19.711Z,6.63
2018-06-15T18:23:48.118Z,6.17
2018-06-15T18:26:16.498Z,6.17
2018-06-15T18:28:44.926Z,5.73
2018-06-15T18:31:13.315Z,6.43
2018-06-15T18:33:41.715Z,5.90
2018-06-15T18:36:10.096Z,6.67
2018-06-15T18:38:38.508Z,5.40
2018-06-15T18:41:07.075Z,5.77
2018-06-15T18:43:35.488Z,5.90
2018-06-15T18:46:03.890Z,5.60
2018-06-15T18:48:32.367Z,5.87
2018-06-15T18:51:00.747Z,6.40
2018-06-15T18:53:29.150Z,6.20
2018-06-15T18:55:57.539Z,6.30
2018-06-15T18:58:25.952Z,5.20
2018-06-15T19:00:54.655Z,5.97
2018-06-15T19:03:23.219Z,5.20
2018-06-15T19:05:51.623Z,5.57
2018-06-15T19:08:20.027Z,5.30
2018-06-15T19:10:48.418Z,4.70
2018-06-15T19:13:16.839Z,6.30
2018-06-15T19:15:45.218Z,6.17
2018-06-15T19:18:13.622Z,6.83
2018-06-15T19:20:41.999Z,5.07
2018-06-15T19:23:10.403Z,5.93
2018-06-15T19:25:38.783Z,5.40
2018-06-15T19:28:07.185Z,5.93
2018-06-15T19:30:35.570Z,4.83
2018-06-15T19:33:04.043Z,6.10
2018-06-15T19:35:32.430Z,6.37
2018-06-15T19:38:00.857Z,7.80
2018-06-15T19:40:29.232Z,5.83
2018-06-15T19:42:57.598Z,6.33
2018-06-15T19:45:25.999Z,6.90
2018-06-15T19:47:54.380Z,5.60
2018-06-15T19:50:22.783Z,6.30
2018-06-15T19:52:51.158Z,6.60
2018-06-15T19:55:19.558Z,7.17
2018-06-15T19:57:47.930Z,6.27
2018-06-15T20:00:16.338Z,5.43
2018-06-15T20:02:44.763Z,6.10
2018-06-15T20:05:13.328Z,5.80
2018-06-15T20:07:41.671Z,7.00
2018-06-15T20:10:10.073Z,7.37
2018-06-15T20:12:38.470Z,5.67
2018-06-15T20:15:06.879Z,5.87
2018-06-15T20:17:35.254Z,6.67
2018-06-15T20:20:03.783Z,5.80
2018-06-15T20:22:32.163Z,6.10
2018-06-15T20:25:00.571Z,7.73
2018-06-15T20:27:28.942Z,8.17
2018-06-15T20:29:57.347Z,8.20
2018-06-15T20:32:25.731Z,8.10
2018-06-15T20:34:54.135Z,8.00
2018-06-15T20:37:22.511Z,6.40
2018-06-15T20:39:50.914Z,6.50
2018-06-15T20:42:19.303Z,6.20
2018-06-15T20:44:47.706Z,6.73
2018-06-15T20:47:16.087Z,6.57
2018-06-15T20:49:44.506Z,6.40
2018-06-15T20:52:12.890Z,8.03
2018-06-15T20:54:41.333Z,8.07
2018-06-15T20:57:09.756Z,8.10
2018-06-15T20:59:38.183Z,8.60
2018-06-15T21:02:06.585Z,6.60
2018-06-15T21:04:34.962Z,5.97
2018-06-15T21:07:03.362Z,6.80
2018-06-15T21:09:31.748Z,6.80
2018-06-15T21:12:00.147Z,7.00
2018-06-15T21:14:28.578Z,7.40
2018-06-15T21:16:56.974Z,6.30
2018-06-15T21:19:25.353Z,6.47
2018-06-15T21:21:53.756Z,6.43
2018-06-15T21:24:22.130Z,6.20
2018-06-15T21:26:50.526Z,6.27
2018-06-15T21:29:18.898Z,6.10
2018-06-15T21:31:47.294Z,6.00
2018-06-15T21:34:15.666Z,5.53
2018-06-15T21:36:44.075Z,5.20
2018-06-15T21:39:12.458Z,5.20
2018-06-15T21:41:40.859Z,6.20
2018-06-15T21:44:09.240Z,5.47
2018-06-15T21:46:37.638Z,5.50
2018-06-15T21:49:06.011Z,5.80
2018-06-15T21:51:34.691Z,6.20
2018-06-15T21:54:03.128Z,5.30
2018-06-15T21:56:31.527Z,5.23
2018-06-15T21:58:59.899Z,5.07
2018-06-15T22:01:29.947Z,6.30
2018-06-15T22:03:58.914Z,5.87
2018-06-15T22:06:27.422Z,6.30
2018-06-15T22:08:55.803Z,4.80
2018-06-15T22:11:24.206Z,6.60
2018-06-15T22:13:52.606Z,5.60
2018-06-15T22:16:21.055Z,5.47
2018-06-15T22:18:49.426Z,5.53
2018-06-15T22:21:17.835Z,5.97
2018-06-15T22:23:46.239Z,5.73
2018-06-15T22:26:14.612Z,5.73
2018-06-15T22:28:43.011Z,6.97
2018-06-15T22:31:11.388Z,5.27
2018-06-15T22:33:39.787Z,5.60
2018-06-15T22:36:08.182Z,6.27
2018-06-15T22:38:36.594Z,6.10
2018-06-15T22:41:04.971Z,6.00
2018-06-15T22:43:33.373Z,5.57
2018-06-15T22:46:01.747Z,5.50
2018-06-15T22:48:30.182Z,6.40
2018-06-15T22:50:58.562Z,5.50
2018-06-15T22:53:26.967Z,7.93
2018-06-15T22:55:55.348Z,5.70
2018-06-15T22:58:23.751Z,5.90
2018-06-15T23:00:52.126Z,5.87
2018-06-15T23:03:20.532Z,5.37
2018-06-15T23:05:48.917Z,6.33
2018-06-15T23:08:17.319Z,6.60
2018-06-15T23:10:45.703Z,6.57
2018-06-15T23:13:14.175Z,6.90
2018-06-15T23:15:42.550Z,6.90
2018-06-15T23:18:10.967Z,7.77
2018-06-15T23:20:39.347Z,7.23
2018-06-15T23:23:07.750Z,6.13
2018-06-15T23:25:36.124Z,6.83
2018-06-15T23:28:04.694Z,5.90
2018-06-15T23:30:33.071Z,6.07
2018-06-15T23:33:01.483Z,5.50
2018-06-15T23:35:29.866Z,7.10
2018-06-15T23:37:58.264Z,6.60
2018-06-15T23:40:26.634Z,7.60
2018-06-15T23:42:55.035Z,6.47
2018-06-15T23:45:23.430Z,6.60
2018-06-15T23:47:51.806Z,7.00
2018-06-15T23:50:20.202Z,6.67
2018-06-15T23:52:48.585Z,7.97
2018-06-15T23:55:16.978Z,6.50
2018-06-15T23:57:45.373Z,7.53
